Terminal Aerodrome Forecast
Issued by NWS Louisville, KY

Home | Current Version | Previous Version | Text Only | Print | Product List | Glossary On
Versions: 1 2 3 4 5 6 7 8 9 10 11 12 13 14 15 16 17 18 19 20 21 22 23 24
000
FTUS43 KLMK 301121
TAFSDF
TAF
KSDF 301121Z 3012/3118 VRB04KT 4SM BR BKN006
      TEMPO 3013/3015 6SM BR SCT006 BKN012
     FM301500 25005KT P6SM BKN020
     FM301800 26007KT P6SM VCTS SCT035CB BKN250
     FM302300 25005KT P6SM SCT040 BKN250=

USA.gov is the U.S. government's official web portal to all federal, state and local government web resources and services.